createdAt,value
2022-07-29T00:00:06.872Z,37.74
2022-07-29T00:01:08.320Z,37.77
2022-07-29T00:02:20.774Z,37.86
2022-07-29T00:03:22.349Z,37.91
2022-07-29T00:04:23.958Z,37.99
2022-07-29T00:05:25.551Z,38.21
2022-07-29T00:06:27.077Z,38.12
2022-07-29T00:07:28.547Z,38.04
2022-07-29T00:08:30.057Z,38.15
2022-07-29T00:09:32.152Z,38.23
2022-07-29T00:10:33.682Z,38.21
2022-07-29T00:11:35.199Z,38.07
2022-07-29T00:12:37.060Z,38.30
2022-07-29T00:13:39.127Z,38.15
2022-07-29T00:14:40.659Z,38.08
2022-07-29T00:15:44.448Z,38.26
2022-07-29T00:16:45.956Z,38.24
2022-07-29T00:17:47.647Z,38.23
2022-07-29T00:18:49.214Z,38.20
2022-07-29T00:19:50.754Z,38.37
2022-07-29T00:20:52.394Z,38.50
2022-07-29T00:21:53.924Z,38.25
2022-07-29T00:22:55.445Z,38.37
2022-07-29T00:23:56.975Z,38.56
2022-07-29T00:24:58.455Z,38.43
2022-07-29T00:25:59.960Z,38.68
2022-07-29T00:27:01.467Z,38.42
2022-07-29T00:28:02.987Z,38.54
2022-07-29T00:29:32.952Z,38.67
2022-07-29T00:30:26.358Z,38.55
2022-07-29T00:31:27.949Z,38.50
2022-07-29T00:32:29.575Z,38.58
2022-07-29T00:33:31.144Z,38.52
2022-07-29T00:34:51.214Z,38.41
2022-07-29T00:35:52.819Z,38.62
2022-07-29T00:36:54.932Z,38.50
2022-07-29T00:37:56.411Z,38.61
2022-07-29T00:38:57.953Z,38.58
2022-07-29T00:39:59.414Z,38.52
2022-07-29T00:41:00.977Z,38.66
2022-07-29T00:42:05.681Z,38.55
2022-07-29T00:43:07.247Z,38.56
2022-07-29T00:44:08.767Z,38.41
2022-07-29T00:45:10.410Z,38.38
2022-07-29T00:46:12.021Z,38.37
2022-07-29T00:47:13.675Z,38.50
2022-07-29T00:48:15.177Z,38.24
2022-07-29T00:49:16.728Z,38.36
2022-07-29T00:50:18.273Z,38.29
2022-07-29T00:51:19.804Z,38.42
2022-07-29T00:52:21.292Z,38.40
2022-07-29T00:53:22.783Z,38.42
2022-07-29T00:54:24.399Z,38.36
2022-07-29T00:55:25.923Z,38.29
2022-07-29T00:56:27.487Z,38.22
2022-07-29T00:57:28.996Z,38.22
2022-07-29T00:58:30.489Z,38.26
2022-07-29T00:59:35.164Z,38.13
2022-07-29T01:00:37.871Z,38.32
2022-07-29T01:01:39.548Z,38.29
2022-07-29T01:02:41.113Z,38.16
2022-07-29T01:03:42.580Z,38.25
2022-07-29T01:04:44.053Z,38.17
2022-07-29T01:05:50.458Z,38.09
2022-07-29T01:06:53.137Z,38.04
2022-07-29T01:07:55.060Z,38.12
2022-07-29T01:08:56.531Z,38.22
2022-07-29T01:09:58.012Z,38.19
2022-07-29T01:11:00.100Z,38.15
2022-07-29T01:12:01.596Z,38.05
2022-07-29T01:13:03.118Z,38.27
2022-07-29T01:14:10.036Z,38.31
2022-07-29T01:15:11.757Z,38.31
2022-07-29T01:16:18.268Z,38.42
2022-07-29T01:17:25.121Z,38.37
2022-07-29T01:18:37.080Z,38.37
2022-07-29T01:19:41.348Z,38.38
2022-07-29T01:20:42.808Z,38.26
2022-07-29T01:21:54.692Z,38.50
2022-07-29T01:23:10.480Z,38.25
2022-07-29T01:24:26.336Z,38.54
2022-07-29T01:25:28.347Z,38.52
2022-07-29T01:26:39.512Z,38.54
2022-07-29T01:27:42.392Z,38.82
2022-07-29T01:28:57.811Z,38.99
2022-07-29T01:29:59.809Z,39.00
2022-07-29T01:31:01.651Z,38.95
2022-07-29T01:32:04.564Z,38.75
2022-07-29T01:33:08.004Z,39.09
2022-07-29T01:34:09.753Z,38.92
2022-07-29T01:35:11.256Z,38.91
2022-07-29T01:36:13.957Z,39.11
2022-07-29T01:37:23.340Z,38.93
2022-07-29T01:38:25.071Z,39.16
2022-07-29T01:39:33.439Z,39.23
2022-07-29T01:40:47.329Z,39.29
2022-07-29T01:41:56.704Z,39.07
2022-07-29T01:42:58.363Z,39.08
2022-07-29T01:44:03.793Z,38.98
2022-07-29T01:45:20.298Z,39.03
2022-07-29T01:46:51.635Z,39.45
2022-07-29T01:47:53.239Z,39.51
2022-07-29T01:48:56.338Z,39.72
2022-07-29T01:49:57.952Z,39.34
2022-07-29T01:51:05.233Z,39.23
2022-07-29T01:52:12.422Z,39.43
2022-07-29T01:53:13.943Z,39.46
2022-07-29T01:54:21.389Z,39.42
2022-07-29T01:55:23.496Z,39.40
2022-07-29T01:56:25.046Z,39.42
2022-07-29T01:57:27.330Z,39.38
2022-07-29T01:58:29.596Z,39.54
2022-07-29T01:59:31.099Z,39.47
2022-07-29T02:00:33.868Z,39.32
2022-07-29T02:01:35.755Z,39.28
2022-07-29T02:02:38.079Z,39.17
2022-07-29T02:03:39.575Z,39.18
2022-07-29T02:04:41.290Z,39.30
2022-07-29T02:05:43.406Z,39.14
2022-07-29T02:06:44.961Z,39.44
2022-07-29T02:07:47.324Z,39.38
2022-07-29T02:08:48.829Z,39.45
2022-07-29T02:09:50.625Z,39.34
2022-07-29T02:10:52.364Z,39.45
2022-07-29T02:11:54.406Z,39.32
2022-07-29T02:12:56.071Z,39.29
2022-07-29T02:13:57.659Z,39.45
2022-07-29T02:15:00.565Z,39.29
2022-07-29T02:16:02.119Z,39.36
2022-07-29T02:17:04.128Z,39.38
2022-07-29T02:18:09.317Z,39.37
2022-07-29T02:19:10.899Z,39.44
2022-07-29T02:20:12.467Z,39.46
2022-07-29T02:21:15.033Z,39.36
2022-07-29T02:22:17.777Z,39.46
2022-07-29T02:23:20.637Z,39.54
2022-07-29T02:24:22.334Z,39.55
2022-07-29T02:25:23.904Z,39.45
2022-07-29T02:26:25.555Z,39.21
2022-07-29T02:27:28.163Z,39.45
2022-07-29T02:28:29.899Z,39.26
2022-07-29T02:29:32.147Z,39.28
2022-07-29T02:30:33.618Z,39.06
2022-07-29T02:31:35.534Z,39.26
2022-07-29T02:32:37.620Z,39.19
2022-07-29T02:33:41.718Z,39.11
2022-07-29T02:34:43.285Z,39.48
2022-07-29T02:35:44.897Z,39.19
2022-07-29T02:36:46.438Z,39.47
2022-07-29T02:38:11.008Z,39.29
2022-07-29T02:39:13.254Z,39.17
2022-07-29T02:40:15.413Z,39.31
2022-07-29T02:41:34.623Z,39.23
2022-07-29T02:42:36.138Z,39.54
2022-07-29T02:43:37.635Z,39.53
2022-07-29T02:44:39.148Z,39.52
2022-07-29T02:47:56.023Z,39.55
2022-07-29T02:48:59.532Z,39.94
2022-07-29T02:50:09.372Z,39.83
2022-07-29T02:51:15.147Z,39.63
2022-07-29T02:52:39.125Z,39.72
2022-07-29T02:53:40.648Z,39.82
2022-07-29T02:54:43.415Z,39.79
2022-07-29T02:55:47.828Z,39.52
2022-07-29T02:56:49.448Z,39.71
2022-07-29T02:57:54.126Z,39.84
2022-07-29T02:58:57.448Z,39.86
2022-07-29T02:59:59.356Z,39.69
2022-07-29T03:01:02.027Z,39.94
2022-07-29T03:02:03.557Z,39.87
2022-07-29T03:03:06.207Z,39.74
2022-07-29T03:04:07.800Z,40.00
2022-07-29T03:05:10.375Z,40.00
2022-07-29T03:06:31.369Z,40.01
2022-07-29T03:07:33.774Z,39.85
2022-07-29T03:08:35.287Z,39.91
2022-07-29T03:09:37.018Z,39.91
2022-07-29T03:10:38.700Z,39.75
2022-07-29T03:11:49.156Z,40.14
2022-07-29T03:12:52.292Z,40.05
2022-07-29T03:13:53.850Z,39.91
2022-07-29T03:14:55.541Z,39.98
2022-07-29T03:15:57.101Z,40.03
2022-07-29T03:16:58.708Z,39.99
2022-07-29T03:18:00.379Z,39.94
2022-07-29T03:19:01.879Z,39.86
2022-07-29T03:20:03.552Z,40.00
2022-07-29T03:21:05.101Z,40.26
2022-07-29T03:22:06.630Z,40.18
2022-07-29T03:23:08.789Z,40.29
2022-07-29T03:24:10.995Z,40.29
2022-07-29T03:25:13.045Z,40.54
2022-07-29T03:26:14.547Z,40.54
2022-07-29T03:27:16.081Z,40.31
2022-07-29T03:28:17.635Z,40.35
2022-07-29T03:29:20.904Z,40.28
2022-07-29T03:30:22.696Z,40.42
2022-07-29T03:31:24.850Z,40.27
2022-07-29T03:32:26.410Z,40.55
2022-07-29T03:33:29.928Z,40.50
2022-07-29T03:34:31.404Z,40.59
2022-07-29T03:35:32.900Z,40.29
2022-07-29T03:36:34.444Z,40.64
2022-07-29T03:37:37.462Z,40.58
2022-07-29T03:38:39.035Z,40.66
2022-07-29T03:39:41.024Z,40.55
2022-07-29T03:40:53.175Z,40.86
2022-07-29T03:41:55.503Z,40.76
2022-07-29T03:42:56.984Z,40.78
2022-07-29T03:43:58.531Z,40.91
2022-07-29T03:45:01.088Z,40.92
2022-07-29T03:46:02.619Z,40.83
2022-07-29T03:47:04.231Z,40.83
2022-07-29T03:48:09.696Z,40.95
2022-07-29T03:49:11.460Z,40.82
2022-07-29T03:50:14.244Z,41.17
2022-07-29T03:51:15.782Z,40.90
2022-07-29T03:52:17.306Z,40.88
2022-07-29T03:53:18.818Z,41.24
2022-07-29T03:54:21.157Z,41.14
2022-07-29T03:55:23.043Z,41.06
2022-07-29T03:56:24.771Z,41.27
2022-07-29T03:57:26.507Z,41.11
2022-07-29T03:58:28.430Z,41.07
2022-07-29T03:59:30.021Z,41.07
2022-07-29T04:00:31.559Z,41.08
2022-07-29T04:01:33.685Z,41.10
2022-07-29T04:02:35.287Z,41.06
2022-07-29T04:03:36.767Z,40.97
2022-07-29T04:04:38.355Z,41.27
2022-07-29T04:05:39.928Z,41.44
2022-07-29T04:06:41.708Z,41.22
2022-07-29T04:07:46.282Z,41.22
2022-07-29T04:08:47.774Z,41.06
2022-07-29T04:09:49.390Z,41.41
2022-07-29T04:10:50.990Z,41.07
2022-07-29T04:12:02.104Z,41.17
2022-07-29T04:13:05.517Z,41.12
2022-07-29T04:14:07.034Z,41.12
2022-07-29T04:15:08.760Z,41.03
2022-07-29T04:16:10.322Z,41.23
2022-07-29T04:17:11.856Z,41.24
2022-07-29T04:18:13.364Z,41.21
2022-07-29T04:19:14.836Z,41.34
2022-07-29T04:20:16.533Z,41.14
2022-07-29T04:21:18.080Z,41.43
2022-07-29T04:22:19.567Z,41.31
2022-07-29T04:23:21.105Z,41.34
2022-07-29T04:24:22.643Z,41.38
2022-07-29T04:25:24.169Z,41.21
2022-07-29T04:26:25.679Z,41.61
2022-07-29T04:27:27.247Z,41.63
2022-07-29T04:28:28.741Z,41.63
2022-07-29T04:29:30.359Z,41.29
2022-07-29T04:30:32.663Z,41.34
2022-07-29T04:31:34.243Z,41.49
2022-07-29T04:32:35.767Z,41.37
2022-07-29T04:33:37.272Z,41.57
2022-07-29T04:34:39.147Z,41.63
2022-07-29T04:35:50.072Z,41.49
2022-07-29T04:36:52.288Z,41.58
2022-07-29T04:37:53.861Z,41.52
2022-07-29T04:38:55.739Z,41.82
2022-07-29T04:39:57.217Z,41.72
2022-07-29T04:40:58.872Z,41.67
2022-07-29T04:42:00.821Z,41.87
2022-07-29T04:43:03.324Z,41.94
2022-07-29T04:44:07.780Z,42.28
2022-07-29T04:45:10.383Z,42.43
2022-07-29T04:46:12.295Z,42.34
2022-07-29T04:47:13.890Z,42.48
2022-07-29T04:48:15.414Z,42.38
2022-07-29T04:49:16.986Z,42.35
2022-07-29T04:50:18.509Z,42.31
2022-07-29T04:51:20.113Z,42.23
2022-07-29T04:52:21.613Z,42.40
2022-07-29T04:53:23.096Z,42.31
2022-07-29T04:54:24.811Z,42.38
2022-07-29T04:55:27.377Z,42.60
2022-07-29T04:56:28.881Z,42.54
2022-07-29T04:57:30.444Z,42.51
2022-07-29T04:58:31.986Z,42.59
2022-07-29T04:59:33.454Z,42.54
2022-07-29T05:00:35.285Z,42.64
2022-07-29T05:01:36.860Z,42.61
2022-07-29T05:02:38.521Z,42.63
2022-07-29T05:03:40.049Z,42.57
2022-07-29T05:04:41.530Z,42.50
2022-07-29T05:05:43.387Z,42.73
2022-07-29T05:06:44.902Z,42.72
2022-07-29T05:07:46.422Z,42.80
2022-07-29T05:08:47.953Z,42.92
2022-07-29T05:09:49.471Z,42.91
2022-07-29T05:10:51.007Z,42.98
2022-07-29T05:11:52.553Z,42.83
2022-07-29T05:12:54.107Z,42.83
2022-07-29T05:13:55.609Z,43.09
2022-07-29T05:14:57.091Z,42.69
2022-07-29T05:16:04.856Z,42.72
2022-07-29T05:17:07.084Z,42.84
2022-07-29T05:18:08.671Z,42.84
2022-07-29T05:19:14.111Z,42.90
2022-07-29T05:20:16.454Z,42.98
2022-07-29T05:21:17.982Z,42.91
2022-07-29T05:22:20.136Z,42.75
2022-07-29T05:23:21.622Z,42.79
2022-07-29T05:24:23.129Z,42.85
2022-07-29T05:25:24.950Z,42.92
2022-07-29T05:26:46.060Z,42.99
2022-07-29T05:27:47.571Z,42.88
2022-07-29T05:28:52.558Z,42.95
2022-07-29T05:29:54.076Z,43.45
2022-07-29T05:30:55.878Z,43.33
2022-07-29T05:31:57.516Z,43.26
2022-07-29T05:32:59.015Z,43.47
2022-07-29T05:34:00.615Z,43.32
2022-07-29T05:35:02.149Z,43.64
2022-07-29T05:36:07.926Z,43.48
2022-07-29T05:37:09.808Z,43.47
2022-07-29T05:38:11.324Z,43.43
2022-07-29T05:39:13.944Z,43.45
2022-07-29T05:40:15.575Z,43.33
2022-07-29T05:41:17.561Z,43.50
2022-07-29T05:42:19.166Z,43.36
2022-07-29T05:43:21.899Z,43.25
2022-07-29T05:44:25.376Z,43.20
2022-07-29T05:45:27.106Z,42.95
2022-07-29T05:46:28.988Z,43.14
2022-07-29T05:47:31.565Z,43.00
2022-07-29T05:48:33.360Z,42.88
2022-07-29T05:49:35.013Z,43.08
2022-07-29T05:50:36.565Z,43.05
2022-07-29T05:51:50.308Z,42.89
2022-07-29T05:52:51.823Z,42.98
2022-07-29T05:53:53.615Z,42.95
2022-07-29T05:54:55.158Z,43.20
2022-07-29T05:55:56.753Z,43.07
2022-07-29T05:56:58.239Z,42.68
2022-07-29T05:57:59.713Z,42.56
2022-07-29T05:59:01.233Z,42.67
2022-07-29T06:00:02.748Z,42.66
2022-07-29T06:01:13.872Z,42.83
2022-07-29T06:02:15.525Z,42.51
2022-07-29T06:03:17.068Z,42.52
2022-07-29T06:04:18.905Z,42.53
2022-07-29T06:05:21.020Z,42.19
2022-07-29T06:06:22.545Z,42.21
2022-07-29T06:07:24.159Z,42.53
2022-07-29T06:08:25.664Z,42.39
2022-07-29T06:09:27.158Z,42.48
2022-07-29T06:10:28.727Z,42.36
2022-07-29T06:11:30.274Z,42.38
2022-07-29T06:12:31.793Z,42.47
2022-07-29T06:13:33.516Z,42.42
2022-07-29T06:14:35.122Z,42.28
2022-07-29T06:15:36.711Z,42.39
2022-07-29T06:16:38.347Z,42.16
2022-07-29T06:17:39.857Z,42.29
2022-07-29T06:19:01.345Z,41.85
2022-07-29T06:20:03.823Z,41.83
2022-07-29T06:21:08.263Z,42.09
2022-07-29T06:22:09.809Z,42.02
2022-07-29T06:23:11.352Z,42.34
2022-07-29T06:24:13.716Z,42.12
2022-07-29T06:25:15.532Z,42.11
2022-07-29T06:26:17.190Z,41.82
2022-07-29T06:27:18.706Z,41.72
2022-07-29T06:28:20.220Z,41.96
2022-07-29T06:29:21.679Z,41.81
2022-07-29T06:30:23.247Z,41.67
2022-07-29T06:31:24.836Z,41.26
2022-07-29T06:32:27.381Z,41.34
2022-07-29T06:33:29.105Z,41.08
2022-07-29T06:34:30.570Z,41.18
2022-07-29T06:35:38.283Z,40.96
2022-07-29T06:36:43.143Z,40.92
2022-07-29T06:37:44.657Z,41.12
2022-07-29T06:38:51.397Z,40.99
2022-07-29T06:40:13.684Z,40.99
2022-07-29T06:41:16.974Z,41.20
2022-07-29T06:42:18.489Z,41.01
2022-07-29T06:43:20.678Z,41.14
2022-07-29T06:44:22.151Z,41.21
2022-07-29T06:45:23.678Z,41.06
2022-07-29T06:46:25.232Z,40.93
2022-07-29T06:47:26.853Z,41.01
2022-07-29T06:48:28.604Z,41.08
2022-07-29T06:49:30.205Z,41.26
2022-07-29T06:50:31.791Z,41.22
2022-07-29T06:51:33.284Z,41.50
2022-07-29T06:52:34.859Z,41.51
2022-07-29T06:53:36.560Z,41.27
2022-07-29T06:54:39.627Z,41.19
2022-07-29T06:55:41.184Z,41.38
2022-07-29T06:56:43.951Z,41.28
2022-07-29T06:57:45.575Z,41.33
2022-07-29T06:58:47.504Z,41.39
2022-07-29T06:59:49.110Z,41.65
2022-07-29T07:00:50.668Z,41.33
2022-07-29T07:01:52.348Z,41.24
2022-07-29T07:02:54.074Z,41.14
2022-07-29T07:03:55.635Z,41.12
2022-07-29T07:04:57.131Z,41.09
2022-07-29T07:05:58.674Z,41.07
2022-07-29T07:07:01.785Z,41.46
2022-07-29T07:08:03.617Z,41.33
2022-07-29T07:09:05.230Z,41.28
2022-07-29T07:10:06.887Z,41.14
2022-07-29T07:11:08.423Z,41.01
2022-07-29T07:12:10.005Z,40.95
2022-07-29T07:13:11.529Z,41.28
2022-07-29T07:14:13.079Z,41.25
2022-07-29T07:15:14.659Z,41.07
2022-07-29T07:16:16.845Z,40.64
2022-07-29T07:17:18.447Z,41.15
2022-07-29T07:18:19.962Z,41.14
2022-07-29T07:19:21.500Z,41.27
2022-07-29T07:20:23.009Z,41.03
2022-07-29T07:21:26.955Z,41.09
2022-07-29T07:22:36.977Z,40.90
2022-07-29T07:23:40.247Z,41.12
2022-07-29T07:24:41.791Z,40.72
2022-07-29T07:25:43.318Z,40.89
2022-07-29T07:26:44.815Z,40.92
2022-07-29T07:27:46.359Z,41.10
2022-07-29T07:28:48.045Z,41.09
2022-07-29T07:29:49.600Z,40.89
2022-07-29T07:30:51.100Z,40.43
2022-07-29T07:31:56.292Z,40.39
2022-07-29T07:33:00.742Z,40.71
2022-07-29T07:34:02.399Z,40.77
2022-07-29T07:35:06.906Z,40.81
2022-07-29T07:36:08.447Z,40.94
2022-07-29T07:37:10.062Z,40.92
2022-07-29T07:38:11.559Z,40.70
2022-07-29T07:39:13.031Z,40.48
2022-07-29T07:40:18.523Z,40.65
2022-07-29T07:41:20.560Z,41.01
2022-07-29T07:42:22.241Z,40.96
2022-07-29T07:43:23.835Z,40.98
2022-07-29T07:44:25.338Z,40.69
2022-07-29T07:45:26.963Z,40.95
2022-07-29T07:46:28.491Z,40.93
2022-07-29T07:47:30.154Z,41.02
2022-07-29T07:48:31.921Z,40.76
2022-07-29T07:49:33.448Z,40.99
2022-07-29T07:50:35.180Z,41.12
2022-07-29T07:51:36.747Z,40.92
2022-07-29T07:52:51.052Z,40.90
2022-07-29T07:53:52.618Z,41.11
2022-07-29T07:54:55.576Z,40.95
2022-07-29T07:56:13.000Z,41.13
2022-07-29T07:57:14.863Z,40.98
2022-07-29T07:58:16.369Z,41.25
2022-07-29T07:59:17.916Z,42.76
2022-07-29T08:00:19.467Z,43.10
2022-07-29T08:01:24.607Z,43.12
2022-07-29T08:02:26.338Z,42.64
2022-07-29T08:03:27.847Z,42.62
2022-07-29T08:04:29.843Z,42.70
2022-07-29T08:05:31.517Z,42.53
2022-07-29T08:06:34.656Z,42.46
2022-07-29T08:07:36.660Z,42.34
2022-07-29T08:08:38.189Z,42.59
2022-07-29T08:09:39.767Z,42.66
2022-07-29T08:10:53.353Z,42.77
2022-07-29T08:11:54.902Z,43.11
2022-07-29T08:12:56.412Z,42.94
2022-07-29T08:13:58.044Z,42.68
2022-07-29T08:14:59.676Z,42.85
2022-07-29T08:16:02.609Z,42.74
2022-07-29T08:17:04.311Z,42.84
2022-07-29T08:18:08.754Z,43.14
2022-07-29T08:19:10.554Z,43.14
2022-07-29T08:20:12.163Z,43.23
2022-07-29T08:21:14.800Z,43.66
2022-07-29T08:22:16.552Z,43.76
2022-07-29T08:23:19.988Z,43.94
2022-07-29T08:24:40.456Z,43.89
2022-07-29T08:25:42.555Z,43.57
2022-07-29T08:26:44.133Z,43.89
2022-07-29T08:27:45.644Z,44.15
2022-07-29T08:28:49.565Z,44.17
2022-07-29T08:29:51.111Z,44.08
2022-07-29T08:30:52.727Z,44.09
2022-07-29T08:31:54.627Z,43.82
2022-07-29T08:32:56.549Z,43.79
2022-07-29T08:34:00.706Z,43.50
2022-07-29T08:35:02.327Z,43.74
2022-07-29T08:36:03.971Z,43.72
2022-07-29T08:37:05.479Z,43.91
2022-07-29T08:38:07.012Z,43.58
2022-07-29T08:39:08.511Z,43.42
2022-07-29T08:40:10.318Z,43.67
2022-07-29T08:41:11.901Z,43.26
2022-07-29T08:42:13.426Z,43.18
2022-07-29T08:43:14.983Z,43.24
2022-07-29T08:44:17.080Z,43.14
2022-07-29T08:45:24.374Z,42.94
2022-07-29T08:46:25.914Z,43.07
2022-07-29T08:47:27.475Z,43.25
2022-07-29T08:48:29.009Z,43.05
2022-07-29T08:49:30.486Z,42.90
2022-07-29T08:50:31.997Z,42.53
2022-07-29T08:51:33.515Z,42.62
2022-07-29T08:52:37.021Z,42.63
2022-07-29T08:53:39.154Z,42.65
2022-07-29T08:54:40.686Z,42.47
2022-07-29T08:55:45.565Z,42.76
2022-07-29T08:56:51.269Z,42.40
2022-07-29T08:57:54.451Z,42.63
2022-07-29T08:58:59.070Z,42.39
2022-07-29T09:00:06.451Z,42.81
2022-07-29T09:01:12.282Z,42.95
2022-07-29T09:02:20.164Z,42.88
2022-07-29T09:03:23.641Z,42.45
2022-07-29T09:04:25.235Z,42.31
2022-07-29T09:05:26.896Z,41.94
2022-07-29T09:06:32.364Z,41.59
2022-07-29T09:07:34.799Z,41.77
2022-07-29T09:08:36.684Z,41.58
2022-07-29T09:09:40.780Z,41.69
2022-07-29T09:10:42.285Z,41.94
2022-07-29T09:11:43.786Z,42.31
2022-07-29T09:12:45.328Z,42.10
2022-07-29T09:13:47.479Z,41.92
2022-07-29T09:14:49.218Z,41.85
2022-07-29T09:15:50.739Z,42.12
2022-07-29T09:16:54.226Z,42.34
2022-07-29T09:17:57.525Z,41.58
2022-07-29T09:18:59.239Z,41.45
2022-07-29T09:20:09.407Z,41.25
2022-07-29T09:21:30.404Z,41.79
2022-07-29T09:22:32.906Z,42.01
2022-07-29T09:23:34.401Z,41.81
2022-07-29T09:24:35.865Z,42.09
2022-07-29T09:25:38.271Z,42.35
2022-07-29T09:26:40.506Z,40.86
2022-07-29T09:27:42.202Z,41.06
2022-07-29T09:28:43.803Z,41.26
2022-07-29T09:29:45.301Z,41.11
2022-07-29T09:30:57.294Z,41.33
2022-07-29T09:31:58.877Z,40.94
2022-07-29T09:33:02.258Z,41.04
2022-07-29T09:34:03.895Z,40.96
2022-07-29T09:35:21.414Z,40.99
2022-07-29T09:36:22.888Z,41.46
2022-07-29T09:37:28.630Z,41.10
2022-07-29T09:38:30.140Z,41.40
2022-07-29T09:39:38.822Z,40.76
2022-07-29T09:40:40.351Z,41.26
2022-07-29T09:41:45.543Z,41.29
2022-07-29T09:42:47.257Z,40.87
2022-07-29T09:43:55.322Z,40.93
2022-07-29T09:44:56.861Z,39.92
2022-07-29T09:46:12.340Z,39.67
2022-07-29T09:47:14.075Z,39.12
2022-07-29T09:48:16.319Z,38.43
2022-07-29T09:49:17.890Z,38.62
2022-07-29T09:50:24.970Z,38.15
2022-07-29T09:51:37.825Z,38.79
2022-07-29T09:52:47.551Z,39.20
2022-07-29T09:53:49.108Z,38.97
2022-07-29T09:54:51.223Z,38.97
2022-07-29T09:55:52.937Z,38.62
2022-07-29T09:56:55.007Z,38.96
2022-07-29T09:57:59.371Z,38.96
2022-07-29T09:59:07.451Z,38.33
2022-07-29T10:00:10.287Z,38.83
2022-07-29T10:01:15.115Z,38.79
2022-07-29T10:02:21.939Z,38.25
2022-07-29T10:03:25.451Z,38.59
2022-07-29T10:04:39.982Z,38.43
2022-07-29T10:05:43.002Z,38.22
2022-07-29T10:07:03.908Z,38.03
2022-07-29T10:08:06.875Z,38.15
2022-07-29T10:09:10.969Z,38.23
2022-07-29T10:10:18.818Z,38.04
2022-07-29T10:11:20.335Z,37.25
2022-07-29T10:12:21.906Z,37.31
2022-07-29T10:13:23.476Z,37.30
2022-07-29T10:14:25.017Z,37.43
2022-07-29T10:15:27.567Z,37.22
2022-07-29T10:16:33.622Z,37.52
2022-07-29T10:17:35.207Z,37.38
2022-07-29T10:18:43.649Z,37.38
2022-07-29T10:19:45.162Z,37.38
2022-07-29T10:20:46.660Z,37.57
2022-07-29T10:21:48.150Z,37.58
2022-07-29T10:22:53.375Z,36.98
2022-07-29T10:23:55.223Z,37.04
2022-07-29T10:25:02.677Z,36.46
2022-07-29T10:26:04.683Z,36.21
2022-07-29T10:27:06.947Z,35.89
2022-07-29T10:28:11.212Z,36.48
2022-07-29T10:29:15.018Z,36.45
2022-07-29T10:30:17.382Z,36.53
2022-07-29T10:31:27.822Z,36.94
2022-07-29T10:32:35.025Z,36.80
2022-07-29T10:33:59.771Z,36.53
2022-07-29T10:35:02.791Z,36.54
2022-07-29T10:36:24.463Z,36.38
2022-07-29T10:37:25.941Z,35.90
2022-07-29T10:38:45.918Z,35.65
2022-07-29T10:40:00.503Z,36.16
2022-07-29T10:41:27.380Z,36.28
2022-07-29T10:42:34.390Z,36.02
2022-07-29T10:43:38.791Z,35.97
2022-07-29T10:44:43.360Z,36.06
2022-07-29T10:45:46.236Z,35.82
2022-07-29T10:46:48.062Z,35.63
2022-07-29T10:47:49.649Z,35.84
2022-07-29T10:49:06.560Z,35.68
2022-07-29T10:50:12.791Z,35.88
2022-07-29T10:51:19.199Z,36.16
2022-07-29T10:52:20.926Z,35.69
2022-07-29T10:54:05.241Z,35.99
2022-07-29T10:55:07.903Z,35.60
2022-07-29T10:56:23.778Z,35.34
2022-07-29T10:57:52.756Z,35.47
2022-07-29T10:59:11.589Z,34.96
2022-07-29T11:00:14.339Z,35.11
2022-07-29T11:01:38.992Z,35.12
2022-07-29T11:02:42.072Z,34.97
2022-07-29T11:03:49.732Z,34.97
2022-07-29T11:04:52.792Z,34.79
2022-07-29T11:05:55.257Z,34.97
2022-07-29T11:06:59.469Z,34.94
2022-07-29T11:08:20.206Z,34.72
2022-07-29T11:09:34.902Z,35.18
2022-07-29T11:10:39.764Z,35.06
2022-07-29T11:11:43.988Z,35.34
2022-07-29T11:12:49.474Z,35.03
2022-07-29T11:13:52.398Z,34.76
2022-07-29T11:14:59.954Z,34.94
2022-07-29T11:16:01.690Z,35.13
2022-07-29T11:17:06.449Z,34.74
2022-07-29T11:18:08.551Z,35.01
2022-07-29T11:19:21.552Z,34.96
2022-07-29T11:20:37.923Z,35.41
2022-07-29T11:21:55.329Z,34.69
2022-07-29T11:23:00.317Z,35.16
2022-07-29T11:24:14.901Z,35.03
2022-07-29T11:25:50.143Z,35.18
2022-07-29T11:27:11.969Z,35.10
2022-07-29T11:29:55.639Z,35.78
2022-07-29T11:30:57.844Z,36.06
2022-07-29T11:32:09.271Z,36.10
2022-07-29T11:33:54.057Z,36.19
2022-07-29T11:35:37.131Z,35.98
2022-07-29T11:36:59.904Z,35.55
2022-07-29T11:38:20.824Z,35.38
2022-07-29T11:39:26.230Z,35.38
2022-07-29T11:40:27.811Z,34.94
2022-07-29T11:41:31.761Z,34.87
2022-07-29T11:42:37.303Z,35.13
2022-07-29T11:43:47.115Z,34.83
2022-07-29T11:45:41.640Z,34.60
2022-07-29T11:47:01.243Z,34.87
2022-07-29T11:48:31.405Z,35.26
2022-07-29T11:50:48.168Z,35.59
2022-07-29T11:51:53.231Z,35.51
2022-07-29T11:52:54.786Z,35.51
2022-07-29T11:54:04.030Z,35.54
2022-07-29T11:55:09.822Z,35.52
2022-07-29T11:56:11.860Z,35.77
2022-07-29T11:57:19.167Z,35.87
2022-07-29T11:58:27.141Z,35.88
2022-07-29T11:59:33.028Z,35.32
2022-07-29T12:00:38.780Z,35.26
2022-07-29T12:01:58.709Z,35.34
2022-07-29T12:03:15.417Z,35.46
2022-07-29T12:04:16.943Z,35.29
2022-07-29T12:05:36.326Z,35.17
2022-07-29T12:06:38.557Z,34.98
2022-07-29T12:07:41.135Z,35.13
2022-07-29T12:08:47.437Z,34.47
2022-07-29T12:09:52.840Z,34.54
2022-07-29T12:10:58.396Z,34.55
2022-07-29T12:12:04.925Z,35.10
2022-07-29T12:13:12.241Z,35.13
2022-07-29T12:14:32.982Z,34.83
2022-07-29T12:15:39.268Z,34.88
2022-07-29T12:16:48.018Z,35.07
2022-07-29T12:17:49.619Z,35.23
2022-07-29T12:18:58.127Z,35.02
2022-07-29T12:20:00.506Z,35.23
2022-07-29T12:21:07.389Z,35.46
2022-07-29T12:22:09.524Z,35.75
2022-07-29T12:23:13.000Z,35.77
2022-07-29T12:24:14.973Z,35.85
2022-07-29T12:25:32.243Z,35.61
2022-07-29T12:26:35.637Z,35.80
2022-07-29T12:27:40.490Z,35.85
2022-07-29T12:28:42.258Z,35.65
2022-07-29T12:29:58.280Z,36.09
2022-07-29T12:31:00.209Z,35.17
2022-07-29T12:32:04.788Z,35.21
2022-07-29T12:33:16.310Z,35.01
2022-07-29T12:34:17.914Z,35.27
2022-07-29T12:35:20.335Z,35.07
2022-07-29T12:36:22.100Z,34.39
2022-07-29T12:37:41.355Z,34.29
2022-07-29T12:38:44.211Z,34.49
2022-07-29T12:39:46.362Z,34.33
2022-07-29T12:40:48.162Z,33.62
2022-07-29T12:41:49.703Z,33.55
2022-07-29T12:43:06.768Z,34.20
2022-07-29T12:44:08.297Z,33.99
2022-07-29T12:45:09.953Z,34.02
2022-07-29T12:46:14.620Z,33.73
2022-07-29T12:47:16.545Z,33.79
2022-07-29T12:48:18.832Z,33.52
2022-07-29T12:49:23.961Z,32.87
2022-07-29T12:50:26.664Z,32.70
2022-07-29T12:51:34.999Z,32.78
2022-07-29T12:52:36.626Z,33.14
2022-07-29T12:53:38.195Z,32.67
2022-07-29T12:54:47.369Z,32.87
2022-07-29T12:55:55.450Z,32.98
2022-07-29T12:57:00.629Z,32.93
2022-07-29T12:58:02.125Z,32.88
2022-07-29T12:59:16.575Z,33.18
2022-07-29T13:00:18.100Z,33.19
2022-07-29T13:01:20.843Z,33.75
2022-07-29T13:02:25.715Z,33.48
2022-07-29T13:03:27.241Z,33.30
2022-07-29T13:04:29.691Z,32.77
2022-07-29T13:05:48.707Z,33.21
2022-07-29T13:06:51.229Z,32.94
2022-07-29T13:07:55.916Z,33.40
2022-07-29T13:09:18.376Z,33.36
2022-07-29T13:10:24.438Z,33.63
2022-07-29T13:11:29.843Z,32.99
2022-07-29T13:12:33.610Z,33.48
2022-07-29T13:13:35.092Z,33.53
2022-07-29T13:14:40.252Z,33.65
2022-07-29T13:15:44.907Z,33.41
2022-07-29T13:17:01.507Z,33.91
2022-07-29T13:18:03.237Z,33.52
2022-07-29T13:19:08.916Z,33.79
2022-07-29T13:20:13.495Z,33.64
2022-07-29T13:21:16.002Z,33.67
2022-07-29T13:22:19.381Z,33.49
2022-07-29T13:23:20.874Z,33.26
2022-07-29T13:24:22.390Z,32.95
2022-07-29T13:25:27.702Z,33.20
2022-07-29T13:26:29.197Z,33.67
2022-07-29T13:27:32.969Z,33.90
2022-07-29T13:28:35.154Z,33.62
2022-07-29T13:29:38.351Z,34.35
2022-07-29T13:30:44.559Z,34.39
2022-07-29T13:31:46.395Z,34.69
2022-07-29T13:32:48.344Z,34.46
2022-07-29T13:33:49.938Z,34.85
2022-07-29T13:34:51.582Z,34.39
2022-07-29T13:35:53.082Z,34.88
2022-07-29T13:36:54.582Z,34.46
2022-07-29T13:37:56.080Z,34.72
2022-07-29T13:38:57.634Z,34.36
2022-07-29T13:40:00.168Z,34.73
2022-07-29T13:41:01.788Z,34.55
2022-07-29T13:42:05.871Z,34.53
2022-07-29T13:43:12.323Z,34.48
2022-07-29T13:44:13.860Z,34.15
2022-07-29T13:45:15.585Z,34.37
2022-07-29T13:46:17.155Z,34.16
2022-07-29T13:47:19.179Z,34.60
2022-07-29T13:48:20.883Z,34.49
2022-07-29T13:49:22.566Z,34.34
2022-07-29T13:50:24.122Z,34.45
2022-07-29T13:51:25.637Z,34.64
2022-07-29T13:52:27.174Z,34.34